Time;durP1;ratioP1;P1;durP2;ratioP2;P2;SDS_P1;SDS_P2;PMS_P1;PMS_P2;Temp;Humidity;BMP_temperature;BMP_pressure;BME280_temperature;BME280_humidity;BME280_pressure;Samples;Min_cycle;Max_cycle;Signal;HPM_P1;HPM_P2
2021/05/08 00:01:35;;;;;;;19.27;7.15;;;;;;;5.72;100.00;98329.22;5010610;28;20026;-76
2021/05/08 00:04:01;;;;;;;23.92;7.43;;;;;;;5.65;100.00;98329.41;5009507;28;20113;-76
2021/05/08 00:06:26;;;;;;;20.83;7.20;;;;;;;5.66;100.00;98330.25;4992388;28;20176;-76
2021/05/08 00:08:52;;;;;;;24.00;7.60;;;;;;;5.55;100.00;98333.91;5009728;28;20030;-76
2021/05/08 00:11:17;;;;;;;24.88;7.18;;;;;;;5.55;100.00;98333.91;5009846;28;20034;-75
2021/05/08 00:13:43;;;;;;;32.30;8.32;;;;;;;5.61;100.00;98332.88;5010255;28;20162;-76
2021/05/08 00:16:08;;;;;;;24.48;7.13;;;;;;;5.60;100.00;98336.69;5010228;28;20163;-77
2021/05/08 00:18:33;;;;;;;23.77;7.72;;;;;;;5.57;100.00;98346.16;5010425;28;20032;-76
2021/05/08 00:20:59;;;;;;;15.50;6.63;;;;;;;5.49;100.00;98340.34;5009978;28;20042;-78
2021/05/08 00:23:26;;;;;;;18.05;6.35;;;;;;;5.48;100.00;98338.72;5010849;28;20108;-76
2021/05/08 00:25:51;;;;;;;17.58;5.78;;;;;;;5.45;100.00;98347.38;5009180;28;20026;-75
2021/05/08 00:28:17;;;;;;;12.40;5.70;;;;;;;5.48;100.00;98349.56;5009103;28;20052;-76
2021/05/08 00:30:42;;;;;;;12.00;5.25;;;;;;;5.41;100.00;98344.34;5009764;28;20022;-76
2021/05/08 00:33:07;;;;;;;7.38;4.43;;;;;;;5.50;100.00;98344.72;5009349;28;20104;-76
2021/05/08 00:35:33;;;;;;;8.77;5.35;;;;;;;5.62;100.00;98348.94;5008855;28;20030;-77
2021/05/08 00:37:58;;;;;;;14.75;5.55;;;;;;;5.53;100.00;98342.31;5009751;28;20022;-75
2021/05/08 00:40:24;;;;;;;13.55;5.53;;;;;;;5.40;100.00;98354.34;5009796;28;20033;-75
2021/05/08 00:42:49;;;;;;;12.35;6.05;;;;;;;5.40;100.00;98343.50;5010150;28;20037;-75
2021/05/08 00:45:15;;;;;;;11.45;6.38;;;;;;;5.53;100.00;98353.16;5010171;28;20527;-77
2021/05/08 00:47:44;;;;;;;9.75;5.25;;;;;;;5.63;100.00;98352.47;4992634;28;20072;-77
2021/05/08 00:50:10;;;;;;;12.55;5.25;;;;;;;5.52;100.00;98350.69;5010041;28;20494;-77
2021/05/08 00:52:37;;;;;;;10.93;4.35;;;;;;;5.48;100.00;98360.44;5010428;28;20499;-76
2021/05/08 00:55:04;;;;;;;15.20;5.55;;;;;;;5.46;100.00;98347.09;5014163;28;20372;-76
2021/05/08 00:57:30;;;;;;;8.23;5.25;;;;;;;5.59;100.00;98340.47;5013026;28;20084;-77
2021/05/08 00:59:55;;;;;;;9.20;5.68;;;;;;;5.62;100.00;98348.09;5013546;28;20467;-76
2021/05/08 01:02:21;;;;;;;21.23;6.70;;;;;;;5.47;100.00;98347.91;5013003;28;20036;-75
2021/05/08 01:04:46;;;;;;;37.78;8.60;;;;;;;5.39;100.00;98351.88;4995114;28;20026;-79
2021/05/08 01:07:11;;;;;;;17.35;6.50;;;;;;;5.40;100.00;98348.94;5012812;28;20087;-77
2021/05/08 01:09:37;;;;;;;34.42;7.22;;;;;;;5.33;100.00;98348.28;4995044;28;20033;-76
2021/05/08 01:12:03;;;;;;;30.23;7.57;;;;;;;5.36;100.00;98353.22;5011845;28;20438;-77
2021/05/08 01:14:28;;;;;;;16.10;7.28;;;;;;;5.52;100.00;98356.09;4994963;28;20029;-77
2021/05/08 01:16:54;;;;;;;29.05;8.90;;;;;;;5.47;100.00;98353.34;5012682;28;20018;-77
2021/05/08 01:19:20;;;;;;;20.65;8.00;;;;;;;5.46;100.00;98357.13;4995294;28;20026;-76
2021/05/08 01:21:46;;;;;;;16.52;7.13;;;;;;;5.36;100.00;98357.81;5013843;28;20028;-76
2021/05/08 01:24:12;;;;;;;21.73;7.95;;;;;;;5.40;100.00;98362.50;5013532;28;20113;-76
2021/05/08 01:26:38;;;;;;;19.30;7.28;;;;;;;5.44;100.00;98357.41;5012529;28;20490;-76
2021/05/08 01:29:05;;;;;;;23.40;7.78;;;;;;;5.43;100.00;98368.47;5012201;28;20038;-76
2021/05/08 01:31:30;;;;;;;38.65;10.73;;;;;;;5.39;100.00;98355.41;5013072;28;20495;-75
2021/05/08 01:33:56;;;;;;;24.02;9.43;;;;;;;5.46;100.00;98357.13;5011838;28;20068;-77
2021/05/08 01:36:25;;;;;;;20.65;7.40;;;;;;;5.44;100.00;98367.41;5012554;28;20034;-75
2021/05/08 01:38:51;;;;;;;13.43;8.18;;;;;;;5.50;100.00;98367.22;5011846;28;20564;-77
2021/05/08 01:41:16;;;;;;;17.27;8.98;;;;;;;5.39;100.00;98379.00;5012161;28;20030;-77
2021/05/08 01:43:42;;;;;;;21.50;10.45;;;;;;;5.37;100.00;98386.59;5012716;28;20065;-75
2021/05/08 01:46:07;;;;;;;30.08;9.65;;;;;;;5.31;100.00;98376.75;5012828;28;20018;-77
2021/05/08 01:48:33;;;;;;;16.42;8.27;;;;;;;5.33;100.00;98375.41;5012837;28;20815;-77
2021/05/08 01:50:59;;;;;;;24.20;9.07;;;;;;;5.29;100.00;98382.41;4995395;28;20040;-76
2021/05/08 01:53:24;;;;;;;28.42;10.05;;;;;;;5.13;100.00;98385.19;5012708;28;20487;-77
2021/05/08 01:55:50;;;;;;;37.20;10.68;;;;;;;5.04;100.00;98381.25;5012558;28;20057;-75
2021/05/08 01:58:16;;;;;;;30.90;11.05;;;;;;;4.97;100.00;98358.91;4995058;28;20033;-76
2021/05/08 02:00:46;;;;;;;15.73;9.15;;;;;;;5.13;100.00;98372.44;5012200;28;20116;-80
2021/05/08 02:03:12;;;;;;;22.92;9.52;;;;;;;5.07;100.00;98378.88;5012327;28;20030;-76
2021/05/08 02:05:39;;;;;;;16.75;9.45;;;;;;;5.02;100.00;98388.78;5011242;28;20030;-75
2021/05/08 02:08:06;;;;;;;23.92;9.38;;;;;;;4.92;100.00;98392.16;5011666;28;20147;-77
2021/05/08 02:10:33;;;;;;;19.35;10.25;;;;;;;4.93;100.00;98395.72;5012370;28;20025;-76
2021/05/08 02:13:00;;;;;;;26.48;9.13;;;;;;;4.96;100.00;98390.63;5012344;28;20457;-79
2021/05/08 02:15:26;;;;;;;27.38;10.65;;;;;;;5.08;100.00;98394.03;5012407;28;20430;-78
2021/05/08 02:17:51;;;;;;;16.73;9.80;;;;;;;4.91;100.00;98393.25;5011168;28;20034;-77
2021/05/08 02:20:22;;;;;;;36.92;11.43;;;;;;;4.98;100.00;98388.47;5011628;28;20501;-76
2021/05/08 02:22:48;;;;;;;25.73;9.88;;;;;;;4.90;100.00;98391.63;5011775;28;20034;-80
2021/05/08 02:25:14;;;;;;;13.45;9.10;;;;;;;5.00;100.00;98390.94;5012595;28;20018;-78
2021/05/08 02:27:40;;;;;;;22.02;8.52;;;;;;;5.00;100.00;98383.63;5012162;28;20021;-76
2021/05/08 02:30:11;;;;;;;21.90;8.38;;;;;;;4.82;100.00;98386.63;4994322;28;20127;-76
2021/05/08 02:32:37;;;;;;;19.15;8.10;;;;;;;4.86;100.00;98393.16;5012013;28;20018;-77
2021/05/08 02:35:04;;;;;;;27.17;8.68;;;;;;;4.97;100.00;98397.69;5010677;28;20026;-77
2021/05/08 02:37:30;;;;;;;27.63;9.40;;;;;;;5.01;100.00;98398.03;5011800;28;20501;-77
2021/05/08 02:39:55;;;;;;;13.98;8.23;;;;;;;4.96;100.00;98396.03;5011848;28;20095;-76
2021/05/08 02:42:20;;;;;;;26.38;9.38;;;;;;;5.12;100.00;98402.50;4994101;28;21432;-78
2021/05/08 02:44:46;;;;;;;24.40;10.05;;;;;;;5.07;100.00;98402.44;5011808;28;20062;-76
2021/05/08 02:47:18;;;;;;;17.27;9.43;;;;;;;5.10;100.00;98397.34;5011707;28;20732;-79
2021/05/08 02:49:49;;;;;;;14.07;8.13;;;;;;;5.19;100.00;98406.69;5011671;28;20025;-77
2021/05/08 02:52:15;;;;;;;16.33;8.38;;;;;;;5.21;100.00;98401.00;5011539;28;20052;-81
2021/05/08 02:54:41;;;;;;;15.93;9.90;;;;;;;5.24;100.00;98401.31;5012084;28;20109;-78
2021/05/08 02:57:07;;;;;;;20.13;9.82;;;;;;;5.27;100.00;98408.97;5011563;28;20566;-77
2021/05/08 02:59:32;;;;;;;16.48;10.35;;;;;;;5.30;100.00;98407.63;5011351;28;20037;-81
2021/05/08 03:01:58;;;;;;;17.50;9.40;;;;;;;5.32;100.00;98408.22;5011233;28;20025;-77
2021/05/08 03:04:23;;;;;;;16.15;10.02;;;;;;;5.49;100.00;98405.44;5010480;28;20014;-78
2021/05/08 03:06:49;;;;;;;16.02;9.82;;;;;;;5.34;100.00;98397.94;5011435;28;20491;-78
2021/05/08 03:09:14;;;;;;;14.98;10.02;;;;;;;5.43;100.00;98398.31;4993741;28;20036;-78
2021/05/08 03:11:41;;;;;;;14.38;9.38;;;;;;;5.47;100.00;98419.28;5011266;28;20084;-75
2021/05/08 03:14:06;;;;;;;14.27;9.85;;;;;;;5.38;100.00;98421.63;5009891;28;20030;-76
2021/05/08 03:16:32;;;;;;;15.65;10.65;;;;;;;5.49;100.00;98419.00;5010255;28;20088;-76
2021/05/08 03:18:57;;;;;;;15.63;10.55;;;;;;;5.43;100.00;98428.16;5010902;28;20055;-77
2021/05/08 03:21:23;;;;;;;13.50;9.05;;;;;;;5.46;100.00;98422.22;5010744;28;20026;-76
2021/05/08 03:23:48;;;;;;;13.07;8.95;;;;;;;5.49;100.00;98438.00;5010919;28;20033;-76
2021/05/08 03:26:13;;;;;;;13.93;8.73;;;;;;;5.67;100.00;98440.44;5010661;28;20474;-76
2021/05/08 03:28:39;;;;;;;14.25;9.30;;;;;;;5.60;100.00;98445.22;5009863;28;20022;-77
2021/05/08 03:31:04;;;;;;;11.48;8.07;;;;;;;5.64;100.00;98443.66;5010503;28;20022;-76
2021/05/08 03:33:30;;;;;;;11.85;9.52;;;;;;;5.68;100.00;98442.88;5010318;28;20116;-77
2021/05/08 03:35:55;;;;;;;11.93;9.32;;;;;;;5.60;100.00;98445.22;4992726;28;20030;-77
2021/05/08 03:38:21;;;;;;;11.02;8.88;;;;;;;5.73;100.00;98439.44;5011340;28;20064;-76
2021/05/08 03:40:46;;;;;;;10.45;8.00;;;;;;;5.87;100.00;98457.00;4993453;28;20120;-76
2021/05/08 03:43:12;;;;;;;8.93;7.38;;;;;;;5.78;100.00;98456.59;5011764;28;20473;-75
2021/05/08 03:45:37;;;;;;;9.55;6.95;;;;;;;5.79;100.00;98449.28;5012108;28;20022;-77
2021/05/08 03:48:03;;;;;;;10.00;7.55;;;;;;;5.81;100.00;98457.97;5010738;28;20061;-75
2021/05/08 03:50:29;;;;;;;8.43;7.53;;;;;;;5.91;100.00;98458.97;5010333;28;20076;-77
2021/05/08 03:52:54;;;;;;;10.52;7.43;;;;;;;5.97;100.00;98465.28;5010355;28;20029;-76
2021/05/08 03:55:20;;;;;;;11.07;7.95;;;;;;;5.89;100.00;98454.84;5011345;28;20026;-77
2021/05/08 03:57:45;;;;;;;9.32;7.07;;;;;;;6.01;100.00;98446.59;5010482;28;20486;-77
2021/05/08 04:00:11;;;;;;;9.13;7.35;;;;;;;5.93;100.00;98458.69;5010101;28;20037;-75
2021/05/08 04:02:37;;;;;;;7.68;6.15;;;;;;;5.94;100.00;98452.19;5010146;28;20083;-75
2021/05/08 04:05:02;;;;;;;8.98;6.82;;;;;;;6.04;100.00;98462.38;5010430;28;20412;-76
2021/05/08 04:07:27;;;;;;;10.98;8.48;;;;;;;6.10;100.00;98473.03;5009775;28;20483;-76
2021/05/08 04:09:53;;;;;;;8.40;7.13;;;;;;;6.28;100.00;98469.97;5010355;28;20034;-77
2021/05/08 04:12:18;;;;;;;10.13;8.00;;;;;;;6.40;100.00;98467.09;4992568;28;20030;-75
2021/05/08 04:14:44;;;;;;;10.80;8.18;;;;;;;6.51;100.00;98473.47;5010163;28;20037;-77
2021/05/08 04:17:09;;;;;;;8.00;7.18;;;;;;;6.51;100.00;98476.19;5010151;28;20038;-79
2021/05/08 04:19:35;;;;;;;7.70;5.65;;;;;;;6.40;100.00;98462.50;4992713;28;20076;-76
2021/05/08 04:22:00;;;;;;;8.93;7.10;;;;;;;6.40;100.00;98467.94;4992774;28;20030;-76
2021/05/08 04:24:25;;;;;;;9.35;7.25;;;;;;;6.45;100.00;98475.31;5010456;28;20030;-75
2021/05/08 04:26:51;;;;;;;9.60;7.30;;;;;;;6.46;100.00;98485.94;5009872;28;20509;-75
2021/05/08 04:29:18;;;;;;;8.70;7.07;;;;;;;6.38;100.00;98491.84;5013103;28;20394;-76
2021/05/08 04:31:44;;;;;;;8.40;6.90;;;;;;;6.38;100.00;98496.44;5013647;28;20014;-76
2021/05/08 04:34:09;;;;;;;10.35;7.15;;;;;;;6.46;100.00;98499.50;4995925;28;20021;-76
2021/05/08 04:36:34;;;;;;;10.45;7.55;;;;;;;6.45;100.00;98495.16;5013037;28;20387;-77
2021/05/08 04:39:00;;;;;;;8.15;6.85;;;;;;;6.43;100.00;98491.88;5012801;28;20104;-75
2021/05/08 04:41:25;;;;;;;10.45;7.40;;;;;;;6.56;100.00;98508.84;5013538;28;20502;-75
2021/05/08 04:43:50;;;;;;;10.80;7.53;;;;;;;6.63;100.00;98499.44;4995901;28;20068;-76
2021/05/08 04:46:16;;;;;;;9.30;6.95;;;;;;;6.74;100.00;98500.31;5012904;28;20483;-75
2021/05/08 04:48:41;;;;;;;8.50;7.63;;;;;;;6.87;100.00;98497.19;5012455;28;20103;-75
2021/05/08 04:51:07;;;;;;;9.60;6.93;;;;;;;7.02;100.00;98504.69;5013504;28;20036;-76
2021/05/08 04:53:33;;;;;;;10.02;7.30;;;;;;;7.12;100.00;98516.47;5013549;28;20041;-75
2021/05/08 04:55:59;;;;;;;10.35;7.07;;;;;;;7.16;100.00;98509.44;5012515;28;20095;-77
2021/05/08 04:58:24;;;;;;;9.63;6.93;;;;;;;7.31;100.00;98514.16;5011916;28;20022;-76
2021/05/08 05:00:50;;;;;;;7.10;5.95;;;;;;;7.32;100.00;98523.97;5013393;28;20092;-75
2021/05/08 05:03:16;;;;;;;7.18;6.20;;;;;;;7.21;100.00;98522.22;5012793;28;20092;-75
2021/05/08 05:05:41;;;;;;;9.35;6.93;;;;;;;7.15;100.00;98521.38;5012741;28;20048;-78
2021/05/08 05:08:06;;;;;;;8.10;6.78;;;;;;;7.22;100.00;98523.88;5013137;28;20046;-77
2021/05/08 05:10:32;;;;;;;7.93;6.70;;;;;;;7.18;100.00;98526.31;5012031;28;20383;-77
2021/05/08 05:13:01;;;;;;;9.55;6.63;;;;;;;7.37;100.00;98526.72;4995498;28;20025;-76
2021/05/08 05:15:27;;;;;;;7.45;6.63;;;;;;;7.29;100.00;98533.47;5013101;28;20021;-76
2021/05/08 05:17:54;;;;;;;6.95;6.00;;;;;;;7.30;100.00;98537.81;5013566;28;20414;-76
2021/05/08 05:20:20;;;;;;;7.53;6.65;;;;;;;7.37;100.00;98541.16;5013813;28;20037;-75
2021/05/08 05:22:46;;;;;;;7.97;7.05;;;;;;;7.40;100.00;98532.47;5012727;28;20029;-82
2021/05/08 05:25:11;;;;;;;9.85;7.28;;;;;;;7.60;100.00;98529.09;5013702;28;20032;-78
2021/05/08 05:27:37;;;;;;;9.30;6.57;;;;;;;7.88;100.00;98536.88;4987212;28;20125;-75
2021/05/08 05:30:03;;;;;;;6.97;5.70;;;;;;;7.94;100.00;98535.00;4974832;28;20026;-75
2021/05/08 05:32:28;;;;;;;8.30;6.40;;;;;;;8.22;100.00;98545.50;4993058;28;20125;-76
2021/05/08 05:34:54;;;;;;;6.38;5.70;;;;;;;8.31;100.00;98538.50;4990656;28;20058;-76
2021/05/08 05:37:19;;;;;;;8.45;6.45;;;;;;;8.56;100.00;98546.75;4993076;28;20038;-75
2021/05/08 05:39:45;;;;;;;6.82;5.35;;;;;;;8.49;100.00;98553.53;4996942;28;20064;-75
2021/05/08 05:42:10;;;;;;;9.65;6.47;;;;;;;8.65;100.00;98554.41;5012068;28;20057;-75
2021/05/08 05:44:36;;;;;;;7.95;6.40;;;;;;;8.87;99.74;98553.13;5012246;28;20030;-76
2021/05/08 05:47:01;;;;;;;5.60;5.10;;;;;;;9.14;99.32;98558.38;5011963;28;20018;-79
2021/05/08 05:49:26;;;;;;;5.68;5.10;;;;;;;9.49;96.44;98557.56;5010314;28;20045;-76
2021/05/08 05:51:52;;;;;;;5.53;4.72;;;;;;;10.11;94.20;98557.22;5011856;28;20053;-78
2021/05/08 05:54:18;;;;;;;7.22;5.22;;;;;;;10.00;91.77;98555.56;5014606;28;20012;-75
2021/05/08 05:56:44;;;;;;;7.50;5.07;;;;;;;9.79;93.16;98563.00;5011612;28;20064;-75
2021/05/08 05:59:09;;;;;;;7.55;4.70;;;;;;;10.06;92.90;98562.66;5011667;28;20030;-75
2021/05/08 06:01:35;;;;;;;5.68;5.07;;;;;;;10.31;91.06;98568.09;5012344;28;20041;-76
2021/05/08 06:04:00;;;;;;;5.80;4.50;;;;;;;10.76;88.62;98564.38;5011226;28;20025;-74
2021/05/08 06:06:26;;;;;;;7.10;3.58;;;;;;;10.63;87.28;98564.97;5010645;28;20084;-75
2021/05/08 06:08:55;;;;;;;4.72;4.10;;;;;;;10.35;87.98;98565.63;5010164;28;20512;-78
2021/05/08 06:11:21;;;;;;;7.80;6.40;;;;;;;10.33;89.79;98565.09;5010279;28;20049;-75
2021/05/08 06:13:46;;;;;;;5.55;4.30;;;;;;;9.96;87.70;98554.50;5010540;28;20427;-75
2021/05/08 06:16:14;;;;;;;4.07;3.50;;;;;;;9.86;88.42;98563.53;5008061;28;20029;-76
2021/05/08 06:18:40;;;;;;;4.75;3.63;;;;;;;9.85;88.87;98574.72;5010358;28;20034;-78
2021/05/08 06:21:06;;;;;;;3.67;3.33;;;;;;;9.97;87.88;98580.72;4993329;28;20033;-77
2021/05/08 06:23:31;;;;;;;5.43;3.97;;;;;;;10.31;88.57;98570.84;4993476;28;20053;-76
2021/05/08 06:25:59;;;;;;;9.75;3.80;;;;;;;10.85;85.29;98578.28;4994231;28;20472;-76
2021/05/08 06:28:25;;;;;;;3.50;3.20;;;;;;;11.27;82.39;98575.84;5011213;28;20528;-77
2021/05/08 06:30:54;;;;;;;4.78;3.85;;;;;;;11.22;82.14;98573.94;5011677;28;20026;-77
2021/05/08 06:33:20;;;;;;;6.57;4.22;;;;;;;11.06;80.71;98569.66;4994014;28;20038;-78
2021/05/08 06:35:45;;;;;;;5.63;4.00;;;;;;;10.91;83.02;98579.88;5010722;28;20029;-78
2021/05/08 06:38:11;;;;;;;8.65;3.67;;;;;;;10.77;82.49;98565.19;5010523;28;20057;-77
2021/05/08 06:40:36;;;;;;;4.47;3.33;;;;;;;10.93;83.19;98572.22;4992170;28;20030;-78
2021/05/08 06:43:01;;;;;;;3.90;3.22;;;;;;;10.95;83.04;98579.03;5010857;28;20479;-77
2021/05/08 06:45:27;;;;;;;3.75;3.25;;;;;;;10.62;82.46;98575.09;5011396;28;20076;-76
2021/05/08 06:47:59;;;;;;;5.28;4.32;;;;;;;10.87;83.54;98565.94;5010986;28;20117;-80
2021/05/08 06:50:26;;;;;;;5.20;2.65;;;;;;;10.90;80.78;98581.00;5010977;28;20521;-79
2021/05/08 06:52:52;;;;;;;3.53;2.88;;;;;;;11.20;80.91;98575.34;4993601;28;20046;-77
2021/05/08 06:55:17;;;;;;;2.05;1.85;;;;;;;11.52;77.50;98580.31;4998816;28;20566;-80
2021/05/08 06:57:43;;;;;;;3.00;2.70;;;;;;;11.50;80.17;98575.09;5010662;28;20120;-82
2021/05/08 07:00:08;;;;;;;2.08;1.88;;;;;;;11.69;78.45;98577.97;5010841;28;20083;-77
2021/05/08 07:02:34;;;;;;;2.50;1.88;;;;;;;11.59;78.25;98581.59;5013289;28;20041;-80
2021/05/08 07:04:59;;;;;;;2.25;1.83;;;;;;;11.31;77.74;98576.88;4991988;28;20029;-79
2021/05/08 07:07:24;;;;;;;8.43;2.63;;;;;;;11.48;78.34;98580.06;5009506;28;20390;-78
2021/05/08 07:09:50;;;;;;;3.65;2.45;;;;;;;11.74;77.51;98592.50;4992098;28;20041;-79
2021/05/08 07:12:15;;;;;;;2.15;1.98;;;;;;;12.00;76.71;98601.28;5009662;28;20479;-76
2021/05/08 07:14:43;;;;;;;1.92;1.60;;;;;;;11.72;75.37;98597.44;5008715;28;20116;-76
2021/05/08 07:17:08;;;;;;;1.38;0.70;;;;;;;11.97;71.40;98599.13;5008695;28;20022;-77
2021/05/08 07:19:34;;;;;;;3.75;1.20;;;;;;;11.81;72.27;98597.63;4982442;28;20391;-76
2021/05/08 07:22:02;;;;;;;1.58;1.15;;;;;;;12.37;71.33;98597.09;5008058;28;20038;-75
2021/05/08 07:24:31;;;;;;;1.02;0.93;;;;;;;12.10;70.25;98605.84;5008289;28;20006;-76
2021/05/08 07:26:57;;;;;;;1.38;0.80;;;;;;;12.21;69.15;98599.19;5007056;28;20390;-77
2021/05/08 07:29:26;;;;;;;3.00;0.95;;;;;;;12.95;66.83;98595.81;5008636;28;20033;-80
2021/05/08 07:31:52;;;;;;;0.70;0.70;;;;;;;12.80;65.36;98596.84;5007893;28;20022;-75
2021/05/08 07:34:17;;;;;;;1.05;0.93;;;;;;;13.06;67.84;98591.81;5007924;28;20076;-78
2021/05/08 07:36:43;;;;;;;1.00;0.90;;;;;;;12.30;67.48;98592.78;5008120;28;20006;-76
2021/05/08 07:39:08;;;;;;;1.15;0.60;;;;;;;11.87;69.84;98599.25;5008226;28;20526;-76
2021/05/08 07:41:34;;;;;;;3.42;0.80;;;;;;;12.20;69.03;98592.06;5008977;28;20492;-73
2021/05/08 07:44:01;;;;;;;1.00;0.90;;;;;;;12.58;68.07;98599.31;5009456;28;20050;-77
2021/05/08 07:46:26;;;;;;;1.52;0.85;;;;;;;12.75;65.74;98587.84;5009079;28;20572;-77
2021/05/08 07:48:52;;;;;;;1.63;0.80;;;;;;;12.77;65.61;98585.63;5008492;28;20029;-77
2021/05/08 07:51:17;;;;;;;3.58;1.00;;;;;;;13.19;63.50;98590.28;5008689;28;20114;-77
2021/05/08 07:53:42;;;;;;;0.75;0.60;;;;;;;12.67;65.44;98588.50;5007752;28;20475;-78
2021/05/08 07:56:08;;;;;;;1.55;1.45;;;;;;;13.60;61.91;98596.81;5008305;28;20426;-82
2021/05/08 07:58:34;;;;;;;0.93;0.63;;;;;;;14.71;57.67;98589.34;5008786;28;20029;-84
2021/05/08 08:00:59;;;;;;;0.88;0.77;;;;;;;14.21;59.80;98595.78;5007250;28;20037;-76
2021/05/08 08:03:24;;;;;;;1.02;0.82;;;;;;;14.20;59.81;98594.97;4988870;28;20034;-81
2021/05/08 08:05:53;;;;;;;0.80;0.70;;;;;;;15.23;58.09;98590.69;5014781;28;20060;-83
2021/05/08 08:08:18;;;;;;;2.47;1.40;;;;;;;15.95;53.86;98596.19;4990514;28;20537;-82
2021/05/08 08:10:47;;;;;;;0.73;0.60;;;;;;;15.41;54.37;98586.19;5016607;28;20116;-84
2021/05/08 08:13:12;;;;;;;1.88;1.05;;;;;;;15.85;53.07;98583.44;4996912;28;20041;-82
2021/05/08 08:15:37;;;;;;;1.25;0.90;;;;;;;14.44;57.29;98583.81;5013742;28;20034;-83
2021/05/08 08:18:07;;;;;;;2.33;1.00;;;;;;;15.72;54.94;98584.34;5014727;28;20021;-75
2021/05/08 08:20:32;;;;;;;2.33;1.15;;;;;;;15.83;53.24;98588.47;5020344;28;20033;-76
2021/05/08 08:22:58;;;;;;;1.17;0.75;;;;;;;16.49;51.99;98606.06;4991875;28;20387;-74
2021/05/08 08:25:24;;;;;;;1.23;0.85;;;;;;;17.67;47.91;98603.97;4996112;28;20025;-75
2021/05/08 08:27:49;;;;;;;1.33;0.70;;;;;;;15.27;54.09;98590.91;5012751;28;20030;-77
2021/05/08 08:30:15;;;;;;;2.17;1.40;;;;;;;14.01;53.65;98591.47;5014503;28;21190;-73
2021/05/08 08:32:40;;;;;;;0.75;0.60;;;;;;;15.40;50.76;98598.31;5013586;28;20105;-76
2021/05/08 08:35:06;;;;;;;0.60;0.60;;;;;;;17.74;45.34;98591.59;5012573;28;20037;-75
2021/05/08 08:37:32;;;;;;;9.35;6.00;;;;;;;17.23;49.40;98606.22;5012812;28;20026;-74
2021/05/08 08:39:58;;;;;;;3.80;1.08;;;;;;;18.02;45.39;98601.19;4994899;28;20022;-75
2021/05/08 08:42:24;;;;;;;0.75;0.65;;;;;;;18.60;43.57;98601.41;5013754;28;20049;-82
2021/05/08 08:44:49;;;;;;;1.42;0.77;;;;;;;19.14;43.16;98601.59;5014159;28;20018;-80
2021/05/08 08:47:28;;;;;;;0.68;0.55;;;;;;;18.73;44.25;98605.09;5003867;28;20507;-79
2021/05/08 08:50:01;;;;;;;4.13;1.00;;;;;;;17.24;47.68;98600.34;5016104;28;20022;-87
2021/05/08 08:52:28;;;;;;;1.00;0.80;;;;;;;15.63;51.32;98591.72;5026735;28;20072;-87
2021/05/08 08:54:56;;;;;;;0.68;0.68;;;;;;;14.60;54.12;98596.16;5002833;28;20034;-80
2021/05/08 08:57:27;;;;;;;1.67;1.00;;;;;;;15.08;52.84;98599.31;5004783;28;20073;-82
2021/05/08 09:00:06;;;;;;;1.45;0.90;;;;;;;14.95;52.36;98595.44;5020746;28;20034;-83
2021/05/08 09:02:36;;;;;;;8.68;1.00;;;;;;;14.48;54.99;98595.84;5015764;28;20052;-83
2021/05/08 09:05:02;;;;;;;4.22;1.70;;;;;;;14.79;53.80;98588.63;5014620;28;20026;-80
2021/05/08 09:07:29;;;;;;;1.10;1.00;;;;;;;14.12;53.67;98586.59;5010969;28;20029;-83
2021/05/08 09:09:56;;;;;;;1.40;0.98;;;;;;;13.64;55.26;98578.63;5013875;28;20080;-80
2021/05/08 09:12:26;;;;;;;1.73;0.98;;;;;;;16.18;49.24;98591.47;5011670;28;20402;-79
2021/05/08 09:14:53;;;;;;;1.13;0.73;;;;;;;16.59;47.24;98580.97;5008686;28;20117;-80
2021/05/08 09:17:21;;;;;;;0.95;0.80;;;;;;;16.60;45.29;98580.63;5011433;28;20084;-78
2021/05/08 09:19:55;;;;;;;1.38;0.77;;;;;;;15.74;46.71;98573.00;4993562;28;20080;-80
2021/05/08 09:22:37;;;;;;;9.82;1.58;;;;;;;17.13;42.87;98568.63;5007550;28;20026;-76
2021/05/08 09:25:06;;;;;;;3.08;0.68;;;;;;;19.25;39.19;98573.16;5009958;28;20113;-80
2021/05/08 09:27:32;;;;;;;2.47;0.90;;;;;;;20.41;37.14;98578.69;5009622;28;20537;-75
2021/05/08 09:30:10;;;;;;;0.73;0.50;;;;;;;18.03;36.90;98573.19;5010917;28;20482;-77
2021/05/08 09:32:41;;;;;;;1.13;0.50;;;;;;;19.53;35.85;98559.59;5009506;28;20029;-76
2021/05/08 09:35:09;;;;;;;1.83;0.50;;;;;;;19.20;37.28;98551.16;4992985;28;20459;-76
2021/05/08 09:37:35;;;;;;;0.38;0.30;;;;;;;19.80;36.53;98546.31;4992957;28;20040;-78
2021/05/08 09:40:16;;;;;;;3.92;0.95;;;;;;;21.41;32.51;98561.34;5004686;28;20037;-76
2021/05/08 09:42:46;;;;;;;0.90;0.60;;;;;;;20.07;34.20;98556.81;5008653;28;20044;-76
2021/05/08 09:45:13;;;;;;;0.73;0.50;;;;;;;20.18;34.08;98542.13;4990539;28;20018;-78
2021/05/08 09:47:39;;;;;;;0.52;0.47;;;;;;;19.94;35.16;98538.47;4986691;28;20022;-76
2021/05/08 09:50:05;;;;;;;0.57;0.40;;;;;;;18.44;35.15;98533.78;5009548;28;20010;-78
2021/05/08 09:52:50;;;;;;;0.60;0.60;;;;;;;16.69;39.03;98541.19;5009028;28;20033;-79
2021/05/08 09:55:16;;;;;;;0.85;0.60;;;;;;;15.53;42.24;98523.88;5006625;28;20042;-77
2021/05/08 09:58:04;;;;;;;1.95;0.85;;;;;;;15.90;42.27;98532.84;5010046;28;20048;-78
2021/05/08 10:00:38;;;;;;;0.60;0.60;;;;;;;17.70;39.03;98533.31;5009279;28;20065;-79
2021/05/08 10:03:14;;;;;;;0.57;0.47;;;;;;;19.16;34.96;98539.13;5009961;28;20485;-77
2021/05/08 10:05:48;;;;;;;0.98;0.52;;;;;;;16.69;38.26;98532.91;5010307;28;20022;-76
2021/05/08 10:08:14;;;;;;;0.50;0.47;;;;;;;16.10;39.98;98531.50;5009190;28;20029;-78
2021/05/08 10:10:39;;;;;;;1.42;0.60;;;;;;;15.69;40.84;98518.78;4984093;28;20022;-77
2021/05/08 10:13:12;;;;;;;2.05;0.73;;;;;;;14.82;43.14;98513.63;5007145;28;20112;-76
2021/05/08 10:15:41;;;;;;;0.40;0.40;;;;;;;14.09;45.87;98515.69;5009537;28;20041;-74
2021/05/08 10:18:16;;;;;;;9.95;0.90;;;;;;;13.78;46.29;98499.72;5008862;28;20037;-75
2021/05/08 10:20:45;;;;;;;1.50;0.60;;;;;;;15.64;43.78;98507.84;5007129;28;20483;-74
2021/05/08 10:23:12;;;;;;;1.98;0.75;;;;;;;16.49;42.06;98504.72;5008665;28;20041;-76
2021/05/08 10:25:39;;;;;;;0.55;0.43;;;;;;;16.66;41.03;98506.75;5009130;28;20112;-75
2021/05/08 10:28:05;;;;;;;0.70;0.43;;;;;;;18.45;36.54;98506.91;4988958;28;20382;-76
2021/05/08 10:30:36;;;;;;;0.65;0.60;;;;;;;19.52;34.33;98502.47;5008547;28;20026;-75
2021/05/08 10:33:11;;;;;;;1.48;0.70;;;;;;;19.19;34.70;98515.44;5009033;28;20096;-75
2021/05/08 10:35:51;;;;;;;1.95;0.40;;;;;;;18.15;37.22;98509.63;5010402;28;20030;-77
2021/05/08 10:38:23;;;;;;;4.75;0.70;;;;;;;15.31;41.88;98498.19;5011872;28;20026;-82
2021/05/08 10:41:08;;;;;;;0.57;0.40;;;;;;;14.78;44.47;98501.63;5010920;28;20026;-79
2021/05/08 10:43:37;;;;;;;2.05;1.73;;;;;;;15.17;44.48;98513.94;5011414;28;20037;-76
2021/05/08 10:46:04;;;;;;;0.40;0.40;;;;;;;14.86;43.86;98503.63;5009951;28;20036;-75
2021/05/08 10:48:30;;;;;;;3.92;0.80;;;;;;;14.91;44.20;98495.25;4992678;28;20087;-75
2021/05/08 10:51:00;;;;;;;1.10;0.98;;;;;;;15.24;43.43;98495.88;5009272;28;20438;-75
2021/05/08 10:53:43;;;;;;;0.88;0.75;;;;;;;14.67;43.52;98486.44;5008349;28;20025;-76
2021/05/08 10:56:31;;;;;;;1.27;0.60;;;;;;;14.05;45.26;98487.16;5009250;28;20037;-75
2021/05/08 10:59:07;;;;;;;1.05;0.60;;;;;;;14.29;42.68;98485.81;5008156;28;20030;-76
2021/05/08 11:01:45;;;;;;;2.00;1.02;;;;;;;15.09;41.15;98473.38;5007237;28;20038;-75
2021/05/08 11:04:11;;;;;;;1.10;0.52;;;;;;;14.81;42.76;98481.72;5006510;28;20034;-75
2021/05/08 11:06:37;;;;;;;0.75;0.75;;;;;;;14.38;43.90;98474.94;5005432;28;20108;-76
2021/05/08 11:09:04;;;;;;;0.90;0.70;;;;;;;14.20;44.16;98478.59;5007447;28;20101;-76
2021/05/08 11:11:48;;;;;;;2.33;0.57;;;;;;;14.56;42.80;98478.72;5006772;28;20040;-75
2021/05/08 11:14:14;;;;;;;0.82;0.73;;;;;;;14.75;42.47;98462.88;5007617;28;20079;-76
2021/05/08 11:17:00;;;;;;;1.35;0.80;;;;;;;15.58;40.68;98469.69;5007287;28;20025;-75
2021/05/08 11:19:25;;;;;;;1.10;0.60;;;;;;;15.58;41.14;98470.50;5007134;28;20033;-75
2021/05/08 11:22:05;;;;;;;0.52;0.50;;;;;;;15.26;40.76;98466.03;5007778;28;20513;-74
2021/05/08 11:24:36;;;;;;;1.27;0.90;;;;;;;15.35;41.45;98466.09;4981488;28;20418;-75
2021/05/08 11:27:02;;;;;;;1.67;1.10;;;;;;;14.98;41.24;98473.59;5009116;28;20142;-75
2021/05/08 11:29:30;;;;;;;3.58;0.55;;;;;;;15.33;41.03;98465.59;5008167;28;20030;-75